KHTL/HTL METAR and TAF weather

Enter ICAO airport designator
Station Type Date Time Source
KHTL METAR 2022/11/15 15:44 UTC NOAA

KHTL 151544Z AUTO 06008KT 1 1/4SM -SN BR FEW007 OVC022 00/M01 A3031 RMK AO2 P0003 T00001011


Station Type Date Time Source
KHTL Decoded METAR 2022/11/15 15:44 UTC NOAA

ROSCOMMON COUNTY AIRPORT, MI, United States (KHTL) 44-21N 084-40W 351M
Nov 15, 2022 - 10:44 AM EST / 2022.11.15 1544 UTC
Wind: from the ENE (060 degrees) at 9 MPH (8 KT):0
Visibility: 1 1/4 mile(s):0
Sky conditions: overcast
Weather: light snow; mist
Precipitation last hour: 0.03 inches
Temperature: 32.0 F (0.0 C)
Windchill: 24 F (-4 C):1
Dew Point: 30.0 F (-1.1 C)
Relative Humidity: 92%
Pressure (altimeter): 30.31 in. Hg (1026 hPa)
ob: KHTL 151544Z AUTO 06008KT 1 1/4SM -SN BR FEW007 OVC022 00/M01 A3031 RMK AO2 P0003 T00001011
cycle: 15

Station Type Date Time Source
KHTL TAF UTC NOAA

Error!

Example: see airport list